Time;durP1;ratioP1;P1;durP2;ratioP2;P2;SDS_P1;SDS_P2;PMS_P1;PMS_P2;Temp;Humidity;BMP_temperature;BMP_pressure;BME280_temperature;BME280_humidity;BME280_pressure;Samples;Min_cycle;Max_cycle;Signal;HPM_P1;HPM_P2
2021/12/23 00:01:40;;;;;;;44.58;21.23;;;;;;;;;;5032418;28;20509;-66
2021/12/23 00:04:09;;;;;;;49.08;22.40;;;;;;;;;;5032203;28;20410;-65
2021/12/23 00:06:38;;;;;;;46.92;22.30;;;;;;;;;;5032318;28;20387;-66
2021/12/23 00:09:05;;;;;;;46.60;21.92;;;;;;;;;;5032309;28;20092;-66
2021/12/23 00:11:33;;;;;;;45.63;22.88;;;;;;;;;;5029153;28;20068;-65
2021/12/23 00:14:01;;;;;;;51.08;22.25;;;;;;;;;;5032136;28;20045;-65
2021/12/23 00:16:41;;;;;;;41.13;22.00;;;;;;;;;;5032350;28;20075;-66
2021/12/23 00:19:19;;;;;;;42.03;22.08;;;;;;;;;;5032111;28;20081;-66
2021/12/23 00:24:32;;;;;;;43.75;22.42;;;;;;;;;;5032024;28;20207;-66
2021/12/23 00:26:59;;;;;;;50.88;22.92;;;;;;;;;;5032674;28;20045;-65
2021/12/23 00:29:26;;;;;;;46.30;22.20;;;;;;;;;;5032037;28;20049;-66
2021/12/23 00:31:53;;;;;;;48.92;23.58;;;;;;;;;;5032101;28;20053;-66
2021/12/23 00:34:20;;;;;;;41.05;20.27;;;;;;;;;;5032186;28;20050;-65
2021/12/23 00:36:49;;;;;;;41.22;21.48;;;;;;;;;;5032504;28;20403;-66
2021/12/23 00:39:17;;;;;;;42.92;20.90;;;;;;;;;;5031826;28;20136;-67
2021/12/23 00:41:45;;;;;;;45.08;23.70;;;;;;;;;;5032203;28;20506;-66
2021/12/23 00:44:12;;;;;;;43.90;21.95;;;;;;;;;;5032029;28;20142;-66
2021/12/23 00:46:40;;;;;;;45.30;22.63;;;;;;;;;;5031806;28;20045;-66
2021/12/23 00:49:07;;;;;;;43.95;22.83;;;;;;;;;;5031863;28;20076;-65
2021/12/23 00:51:36;;;;;;;42.22;22.08;;;;;;;;;;5032079;28;20045;-66
2021/12/23 00:54:05;;;;;;;44.33;22.73;;;;;;;;;;5032178;28;20407;-66
2021/12/23 00:56:36;;;;;;;45.05;21.98;;;;;;;;;;5031765;28;20108;-66
2021/12/23 00:59:04;;;;;;;44.80;22.40;;;;;;;;;;5031651;28;20058;-66
2021/12/23 01:01:31;;;;;;;53.80;23.35;;;;;;;;;;5031712;28;20045;-66
2021/12/23 01:03:58;;;;;;;41.50;22.75;;;;;;;;;;5031785;28;20053;-66
2021/12/23 01:06:25;;;;;;;49.08;24.40;;;;;;;;;;5031783;28;20057;-66
2021/12/23 01:08:53;;;;;;;46.35;22.33;;;;;;;;;;5031786;28;20073;-66
2021/12/23 01:11:21;;;;;;;43.10;22.30;;;;;;;;;;5031768;28;20051;-65
2021/12/23 01:14:01;;;;;;;51.50;22.40;;;;;;;;;;5031819;28;20041;-66
2021/12/23 01:16:48;;;;;;;44.67;23.27;;;;;;;;;;5031880;28;20736;-66
2021/12/23 01:19:16;;;;;;;53.83;24.35;;;;;;;;;;5031473;28;20046;-66
2021/12/23 01:21:43;;;;;;;50.75;25.58;;;;;;;;;;5031975;28;20049;-66
2021/12/23 01:24:10;;;;;;;47.35;22.95;;;;;;;;;;5031743;28;20052;-66
2021/12/23 01:26:39;;;;;;;42.35;21.58;;;;;;;;;;5031850;28;20045;-66
2021/12/23 01:29:06;;;;;;;47.10;21.05;;;;;;;;;;5031544;28;20132;-66
2021/12/23 01:31:34;;;;;;;45.00;21.00;;;;;;;;;;5031669;28;20045;-66
2021/12/23 01:34:01;;;;;;;42.80;20.48;;;;;;;;;;5031465;28;20050;-66
2021/12/23 01:36:28;;;;;;;37.25;18.50;;;;;;;;;;5034632;28;20072;-66
2021/12/23 01:38:56;;;;;;;41.58;19.15;;;;;;;;;;5035128;28;20057;-66
2021/12/23 01:41:23;;;;;;;38.05;18.60;;;;;;;;;;5035229;28;20153;-66
2021/12/23 01:43:52;;;;;;;40.30;19.05;;;;;;;;;;5035157;28;20049;-65
2021/12/23 01:46:22;;;;;;;40.33;19.95;;;;;;;;;;5034945;28;20072;-66
2021/12/23 01:48:49;;;;;;;45.65;19.45;;;;;;;;;;5035094;28;20405;-66
2021/12/23 01:51:16;;;;;;;39.20;17.98;;;;;;;;;;5035101;28;20441;-66
2021/12/23 01:53:43;;;;;;;39.42;19.33;;;;;;;;;;5035064;28;20046;-66
2021/12/23 01:56:10;;;;;;;43.88;19.25;;;;;;;;;;5034794;28;20045;-66
2021/12/23 01:58:37;;;;;;;38.88;18.98;;;;;;;;;;5034779;28;20053;-65
2021/12/23 02:01:06;;;;;;;38.70;18.30;;;;;;;;;;5034677;28;20049;-66
2021/12/23 02:03:34;;;;;;;37.17;18.13;;;;;;;;;;5035050;28;20049;-65
2021/12/23 02:06:01;;;;;;;37.55;17.65;;;;;;;;;;5034742;28;20413;-64
2021/12/23 02:08:28;;;;;;;40.47;18.73;;;;;;;;;;5034501;28;20418;-64
2021/12/23 02:10:55;;;;;;;43.38;18.38;;;;;;;;;;5034968;28;20072;-64
2021/12/23 02:13:23;;;;;;;39.47;16.58;;;;;;;;;;5034542;28;20046;-64
2021/12/23 02:15:50;;;;;;;39.08;17.75;;;;;;;;;;5034597;28;20049;-64
2021/12/23 02:18:20;;;;;;;38.80;18.88;;;;;;;;;;5034374;28;20045;-64
2021/12/23 02:20:49;;;;;;;36.10;17.90;;;;;;;;;;5034511;28;20438;-65
2021/12/23 02:23:16;;;;;;;37.10;17.30;;;;;;;;;;5034541;28;20044;-65
2021/12/23 02:25:43;;;;;;;29.92;15.88;;;;;;;;;;5034402;28;20057;-65
2021/12/23 02:28:10;;;;;;;33.90;17.13;;;;;;;;;;5034149;28;20533;-65
2021/12/23 02:30:39;;;;;;;36.85;17.83;;;;;;;;;;5034286;28;20046;-65
2021/12/23 02:33:07;;;;;;;34.15;16.20;;;;;;;;;;5034397;28;20052;-65
2021/12/23 02:35:35;;;;;;;34.05;18.27;;;;;;;;;;5034243;28;20049;-65
2021/12/23 02:38:05;;;;;;;39.75;18.20;;;;;;;;;;5034073;28;20060;-65
2021/12/23 02:40:35;;;;;;;35.72;17.13;;;;;;;;;;5034068;28;20053;-65
2021/12/23 02:43:11;;;;;;;35.55;17.15;;;;;;;;;;5034070;28;20045;-64
2021/12/23 02:45:39;;;;;;;35.08;17.02;;;;;;;;;;5033870;28;20057;-65
2021/12/23 02:48:12;;;;;;;40.08;20.33;;;;;;;;;;5034033;28;20046;-65
2021/12/23 02:50:39;;;;;;;40.75;17.48;;;;;;;;;;5034119;28;20111;-65
2021/12/23 02:53:07;;;;;;;42.67;19.65;;;;;;;;;;5033751;28;20051;-65
2021/12/23 02:55:34;;;;;;;39.08;18.45;;;;;;;;;;5033894;28;20129;-65
2021/12/23 02:58:01;;;;;;;38.08;19.00;;;;;;;;;;5033741;28;20053;-64
2021/12/23 03:00:29;;;;;;;41.30;19.80;;;;;;;;;;5033713;28;20419;-65
2021/12/23 03:02:56;;;;;;;39.47;17.45;;;;;;;;;;5033963;28;20057;-64
2021/12/23 03:05:23;;;;;;;34.85;18.33;;;;;;;;;;5033691;28;20045;-64
2021/12/23 03:07:50;;;;;;;38.53;17.58;;;;;;;;;;5033209;28;20060;-64
2021/12/23 03:10:21;;;;;;;35.53;17.35;;;;;;;;;;5033558;28;20517;-65
2021/12/23 03:12:49;;;;;;;35.00;17.13;;;;;;;;;;5033555;28;20053;-65
2021/12/23 03:15:16;;;;;;;31.20;15.48;;;;;;;;;;5033585;28;20046;-65
2021/12/23 03:17:42;;;;;;;32.35;15.63;;;;;;;;;;5033249;28;20050;-64
2021/12/23 03:20:10;;;;;;;33.65;16.60;;;;;;;;;;5033060;28;20120;-65
2021/12/23 03:22:37;;;;;;;32.88;15.55;;;;;;;;;;5033463;28;20419;-64
2021/12/23 03:25:05;;;;;;;34.72;17.33;;;;;;;;;;5033445;28;20418;-65
2021/12/23 03:27:33;;;;;;;29.35;16.13;;;;;;;;;;5032949;28;20057;-64
2021/12/23 03:30:00;;;;;;;33.85;17.05;;;;;;;;;;5033249;28;20050;-64
2021/12/23 03:32:27;;;;;;;33.33;15.85;;;;;;;;;;5033138;28;20386;-65
2021/12/23 03:34:54;;;;;;;32.63;15.88;;;;;;;;;;5033141;28;20054;-65
2021/12/23 03:37:21;;;;;;;35.13;16.10;;;;;;;;;;5033220;28;20502;-64
2021/12/23 03:39:51;;;;;;;35.95;16.65;;;;;;;;;;5032688;28;20052;-64
2021/12/23 03:42:18;;;;;;;29.27;14.73;;;;;;;;;;5030012;28;20132;-64
2021/12/23 03:44:46;;;;;;;28.40;15.85;;;;;;;;;;5032572;28;20042;-65
2021/12/23 03:47:13;;;;;;;37.00;17.05;;;;;;;;;;5032280;28;20037;-65
2021/12/23 03:49:40;;;;;;;34.60;17.30;;;;;;;;;;5032348;28;20044;-64
2021/12/23 03:52:07;;;;;;;31.92;16.05;;;;;;;;;;5032749;28;20056;-64
2021/12/23 03:54:34;;;;;;;41.17;17.35;;;;;;;;;;5032886;28;20065;-64
2021/12/23 03:57:01;;;;;;;33.05;17.30;;;;;;;;;;5032765;28;20053;-65
2021/12/23 03:59:28;;;;;;;33.00;15.18;;;;;;;;;;5032087;28;20053;-64
2021/12/23 04:01:56;;;;;;;37.78;16.90;;;;;;;;;;5032407;28;20053;-64
2021/12/23 04:04:23;;;;;;;35.38;15.45;;;;;;;;;;5032716;28;20052;-65
2021/12/23 04:06:51;;;;;;;33.63;16.33;;;;;;;;;;5032543;28;20438;-64
2021/12/23 04:09:19;;;;;;;33.90;17.10;;;;;;;;;;5032296;28;20148;-66
2021/12/23 04:11:45;;;;;;;32.97;16.50;;;;;;;;;;5032199;28;20049;-64
2021/12/23 04:14:12;;;;;;;30.67;16.15;;;;;;;;;;5032402;28;20418;-66
2021/12/23 04:16:39;;;;;;;31.77;16.70;;;;;;;;;;5032370;28;20132;-64
2021/12/23 04:19:10;;;;;;;32.63;16.30;;;;;;;;;;5032197;28;20053;-65
2021/12/23 04:21:38;;;;;;;34.97;16.08;;;;;;;;;;5032617;28;20430;-65
2021/12/23 04:24:06;;;;;;;31.48;16.17;;;;;;;;;;5032122;28;20053;-65
2021/12/23 04:26:33;;;;;;;32.33;16.10;;;;;;;;;;5032254;28;20046;-64
2021/12/23 04:29:00;;;;;;;32.35;16.80;;;;;;;;;;5031893;28;20418;-65
2021/12/23 04:31:27;;;;;;;34.78;15.65;;;;;;;;;;5032296;28;20056;-65
2021/12/23 04:33:55;;;;;;;31.05;16.02;;;;;;;;;;5032157;28;20486;-65
2021/12/23 04:36:26;;;;;;;35.97;17.50;;;;;;;;;;5032348;28;20049;-65
2021/12/23 04:38:54;;;;;;;36.88;17.88;;;;;;;;;;5032375;28;20056;-64
2021/12/23 04:41:21;;;;;;;36.80;18.05;;;;;;;;;;5031922;28;20046;-65
2021/12/23 04:43:48;;;;;;;37.75;15.80;;;;;;;;;;5032191;28;20518;-65
2021/12/23 04:46:15;;;;;;;33.78;16.85;;;;;;;;;;5032156;28;20053;-65
2021/12/23 04:48:44;;;;;;;31.90;17.27;;;;;;;;;;5032014;28;20071;-65
2021/12/23 04:51:12;;;;;;;33.83;16.35;;;;;;;;;;5032199;28;20227;-64
2021/12/23 04:53:41;;;;;;;36.63;16.45;;;;;;;;;;5031852;28;20045;-65
2021/12/23 04:56:08;;;;;;;40.80;18.88;;;;;;;;;;5031868;28;20053;-65
2021/12/23 04:58:35;;;;;;;30.58;16.42;;;;;;;;;;5031762;28;20064;-65
2021/12/23 05:01:03;;;;;;;35.38;17.38;;;;;;;;;;5031914;28;20050;-65
2021/12/23 05:03:30;;;;;;;27.70;16.42;;;;;;;;;;5031810;28;20061;-65
2021/12/23 05:05:57;;;;;;;35.75;17.60;;;;;;;;;;5031876;28;20052;-65
2021/12/23 05:08:24;;;;;;;34.30;18.25;;;;;;;;;;5032192;28;20045;-65
2021/12/23 05:10:52;;;;;;;34.08;18.08;;;;;;;;;;5035849;28;20056;-65
2021/12/23 05:13:19;;;;;;;36.33;17.77;;;;;;;;;;5035953;28;20414;-64
2021/12/23 05:15:46;;;;;;;35.33;16.55;;;;;;;;;;5035890;28;20045;-65
2021/12/23 05:18:14;;;;;;;36.33;17.35;;;;;;;;;;5035707;28;20506;-65
2021/12/23 05:20:41;;;;;;;37.50;16.95;;;;;;;;;;5036041;28;20045;-65
2021/12/23 05:23:08;;;;;;;36.40;17.00;;;;;;;;;;5035558;28;20045;-65
2021/12/23 05:25:35;;;;;;;34.15;15.70;;;;;;;;;;5035543;28;20045;-65
2021/12/23 05:28:04;;;;;;;33.60;17.52;;;;;;;;;;5035330;28;20414;-65
2021/12/23 05:30:31;;;;;;;29.80;16.02;;;;;;;;;;5035517;28;20052;-65
2021/12/23 05:32:58;;;;;;;39.78;16.95;;;;;;;;;;5035408;28;20095;-64
2021/12/23 05:35:28;;;;;;;31.52;15.52;;;;;;;;;;5035439;28;20049;-64
2021/12/23 05:37:58;;;;;;;30.83;16.08;;;;;;;;;;5034953;28;20053;-64
2021/12/23 05:40:29;;;;;;;33.20;15.60;;;;;;;;;;5035316;28;20053;-65
2021/12/23 05:42:57;;;;;;;32.13;14.95;;;;;;;;;;5035498;28;20152;-64
2021/12/23 05:45:25;;;;;;;34.88;16.85;;;;;;;;;;5035260;28;20053;-64
2021/12/23 05:47:53;;;;;;;30.20;16.17;;;;;;;;;;5034795;28;20092;-66
2021/12/23 05:50:21;;;;;;;33.65;16.05;;;;;;;;;;5035057;28;20053;-65
2021/12/23 05:52:48;;;;;;;36.78;16.98;;;;;;;;;;5034997;28;20515;-65
2021/12/23 05:55:15;;;;;;;39.35;17.10;;;;;;;;;;5034976;28;20053;-65
2021/12/23 05:57:43;;;;;;;32.65;16.52;;;;;;;;;;5035105;28;20140;-65
2021/12/23 06:00:13;;;;;;;37.13;17.20;;;;;;;;;;5035239;28;20045;-64
2021/12/23 06:02:42;;;;;;;35.92;16.25;;;;;;;;;;5034829;28;20069;-65
2021/12/23 06:05:10;;;;;;;36.88;16.92;;;;;;;;;;5034810;28;20068;-65
2021/12/23 06:07:37;;;;;;;37.38;17.45;;;;;;;;;;5034611;28;20052;-65
2021/12/23 06:10:05;;;;;;;33.33;16.58;;;;;;;;;;5034478;28;20041;-65
2021/12/23 06:12:32;;;;;;;32.17;16.40;;;;;;;;;;5034758;28;20438;-65
2021/12/23 06:14:59;;;;;;;39.08;15.98;;;;;;;;;;5034687;28;20049;-65
2021/12/23 06:17:26;;;;;;;36.30;17.27;;;;;;;;;;5034941;28;20053;-65
2021/12/23 06:19:54;;;;;;;35.78;16.88;;;;;;;;;;5034613;28;20060;-65
2021/12/23 06:22:21;;;;;;;33.45;15.40;;;;;;;;;;5033985;28;20048;-65
2021/12/23 06:24:49;;;;;;;31.10;17.08;;;;;;;;;;5034677;28;20049;-65
2021/12/23 06:27:18;;;;;;;35.40;17.08;;;;;;;;;;5034230;28;20136;-64
2021/12/23 06:29:45;;;;;;;38.60;17.92;;;;;;;;;;5034006;28;20045;-65
2021/12/23 06:32:12;;;;;;;31.85;18.02;;;;;;;;;;5034486;28;20510;-65
2021/12/23 06:34:40;;;;;;;35.13;16.73;;;;;;;;;;5034199;28;20049;-65
2021/12/23 06:37:08;;;;;;;39.17;17.17;;;;;;;;;;5034334;28;20414;-65
2021/12/23 06:39:38;;;;;;;35.22;16.77;;;;;;;;;;5034112;28;20056;-65
2021/12/23 06:42:06;;;;;;;33.58;16.83;;;;;;;;;;5034379;28;20506;-65
2021/12/23 06:44:34;;;;;;;38.28;18.38;;;;;;;;;;5034217;28;20056;-68
2021/12/23 06:47:01;;;;;;;39.00;19.73;;;;;;;;;;5034189;28;20141;-65
2021/12/23 06:49:31;;;;;;;31.88;17.33;;;;;;;;;;5033938;28;20053;-65
2021/12/23 06:51:58;;;;;;;39.47;19.07;;;;;;;;;;5034621;28;20068;-64
2021/12/23 06:54:27;;;;;;;41.95;20.05;;;;;;;;;;5034009;28;20392;-65
2021/12/23 06:56:54;;;;;;;39.97;19.92;;;;;;;;;;5033932;28;20057;-65
2021/12/23 06:59:21;;;;;;;38.38;20.65;;;;;;;;;;5033529;28;20046;-64
2021/12/23 07:01:51;;;;;;;37.95;17.88;;;;;;;;;;5032940;28;20095;-66
2021/12/23 07:04:21;;;;;;;36.85;16.48;;;;;;;;;;5033060;28;20050;-66
2021/12/23 07:06:58;;;;;;;39.30;17.98;;;;;;;;;;5033292;28;20049;-66
2021/12/23 07:09:26;;;;;;;34.03;16.85;;;;;;;;;;5030328;28;20367;-66
2021/12/23 07:11:57;;;;;;;30.05;16.52;;;;;;;;;;5031552;28;20041;-66
2021/12/23 07:14:24;;;;;;;35.58;16.52;;;;;;;;;;5031341;28;20595;-66
2021/12/23 07:16:51;;;;;;;35.80;17.73;;;;;;;;;;5031228;28;20049;-67
2021/12/23 07:19:17;;;;;;;36.50;17.17;;;;;;;;;;5031341;28;20391;-66
2021/12/23 07:21:44;;;;;;;40.13;17.40;;;;;;;;;;5034499;28;20320;-66
2021/12/23 07:24:11;;;;;;;34.55;16.52;;;;;;;;;;5032083;28;20073;-65
2021/12/23 07:26:40;;;;;;;39.88;18.38;;;;;;;;;;5025482;28;20057;-66
2021/12/23 07:29:07;;;;;;;36.53;17.52;;;;;;;;;;5047737;28;20104;-67
2021/12/23 07:31:34;;;;;;;39.15;19.60;;;;;;;;;;5031660;28;20049;-66
2021/12/23 07:34:01;;;;;;;38.40;18.42;;;;;;;;;;5030467;28;20430;-66
2021/12/23 07:36:28;;;;;;;40.95;18.52;;;;;;;;;;5030948;28;20054;-65
2021/12/23 07:38:56;;;;;;;44.05;20.60;;;;;;;;;;5031678;28;20084;-66
2021/12/23 07:41:23;;;;;;;43.80;21.27;;;;;;;;;;5032546;28;20418;-66
2021/12/23 07:44:00;;;;;;;40.15;18.98;;;;;;;;;;5031151;28;20048;-66
2021/12/23 07:46:28;;;;;;;46.45;20.52;;;;;;;;;;5031423;28;20127;-66
2021/12/23 07:48:57;;;;;;;36.95;20.15;;;;;;;;;;5031135;28;20053;-66
2021/12/23 07:51:24;;;;;;;40.30;18.42;;;;;;;;;;5031341;28;20057;-66
2021/12/23 07:53:51;;;;;;;40.25;18.65;;;;;;;;;;5031251;28;20064;-66
2021/12/23 07:56:18;;;;;;;38.42;19.88;;;;;;;;;;5030966;28;20068;-66
2021/12/23 07:58:45;;;;;;;39.53;18.15;;;;;;;;;;5031193;28;20049;-65
2021/12/23 08:01:13;;;;;;;41.55;19.70;;;;;;;;;;5031188;28;20060;-65
2021/12/23 08:03:40;;;;;;;38.55;21.05;;;;;;;;;;5031674;28;20060;-66
2021/12/23 08:06:07;;;;;;;42.03;20.48;;;;;;;;;;5056383;22;20053;-79
2021/12/23 08:08:34;;;;;;;40.85;20.23;;;;;;;;;;5053103;28;20198;-79
2021/12/23 08:11:01;;;;;;;47.47;21.25;;;;;;;;;;5052859;28;20091;-80
2021/12/23 08:13:28;;;;;;;42.17;20.33;;;;;;;;;;5052736;28;20093;-80
2021/12/23 08:15:57;;;;;;;37.53;19.30;;;;;;;;;;5046188;28;20060;-80
2021/12/23 08:18:25;;;;;;;35.40;19.17;;;;;;;;;;5032649;28;20411;-79
2021/12/23 08:20:52;;;;;;;40.15;19.23;;;;;;;;;;5032392;28;20046;-79
2021/12/23 08:23:19;;;;;;;37.83;19.33;;;;;;;;;;5032635;28;20045;-79
2021/12/23 08:25:46;;;;;;;36.58;19.42;;;;;;;;;;5031923;28;20049;-79
2021/12/23 08:28:12;;;;;;;33.85;18.48;;;;;;;;;;5032883;28;20049;-79
2021/12/23 08:30:40;;;;;;;33.58;18.02;;;;;;;;;;5032365;28;20099;-79
2021/12/23 08:33:07;;;;;;;39.08;19.42;;;;;;;;;;5033401;28;20050;-83
2021/12/23 08:35:36;;;;;;;42.75;22.05;;;;;;;;;;5034527;28;20099;-84
2021/12/23 08:38:05;;;;;;;42.03;21.88;;;;;;;;;;5034764;28;20053;-81
2021/12/23 08:40:32;;;;;;;38.45;20.95;;;;;;;;;;5034160;28;20049;-80
2021/12/23 08:43:01;;;;;;;55.58;27.27;;;;;;;;;;5042782;28;20079;-79
2021/12/23 08:45:30;;;;;;;53.63;25.05;;;;;;;;;;5051799;28;20427;-79
2021/12/23 08:47:57;;;;;;;41.03;21.88;;;;;;;;;;5051648;28;20080;-78
2021/12/23 08:50:26;;;;;;;41.75;19.83;;;;;;;;;;5051844;28;20612;-79
2021/12/23 08:52:55;;;;;;;43.08;22.45;;;;;;;;;;5053425;28;20045;-79
2021/12/23 08:55:25;;;;;;;46.85;21.48;;;;;;;;;;5055108;28;20136;-79
2021/12/23 08:57:52;;;;;;;52.35;24.83;;;;;;;;;;5054014;28;20052;-79
2021/12/23 09:00:20;;;;;;;57.42;29.10;;;;;;;;;;5053592;28;20218;-80
2021/12/23 09:02:49;;;;;;;49.15;25.70;;;;;;;;;;5054790;28;20091;-80
2021/12/23 09:05:17;;;;;;;42.65;21.65;;;;;;;;;;5053713;28;20056;-80
2021/12/23 09:07:44;;;;;;;39.08;20.27;;;;;;;;;;5053923;28;20049;-80
2021/12/23 09:10:13;;;;;;;41.20;19.42;;;;;;;;;;5053634;28;20099;-76
2021/12/23 09:12:40;;;;;;;37.70;18.98;;;;;;;;;;5055515;28;20072;-80
2021/12/23 09:15:08;;;;;;;40.25;20.92;;;;;;;;;;5056618;28;20083;-80
2021/12/23 09:17:35;;;;;;;35.05;19.58;;;;;;;;;;5056967;28;20506;-81
2021/12/23 09:20:02;;;;;;;38.35;18.48;;;;;;;;;;5056911;28;20416;-81
2021/12/23 09:22:29;;;;;;;37.58;20.10;;;;;;;;;;5055690;28;20551;-80
2021/12/23 09:24:58;;;;;;;38.15;18.90;;;;;;;;;;5054779;28;20119;-80
2021/12/23 09:27:37;;;;;;;37.50;19.98;;;;;;;;;;5054081;28;20048;-84
2021/12/23 09:32:53;;;;;;;34.90;20.60;;;;;;;;;;5055397;28;20550;-82
2021/12/23 09:35:22;;;;;;;37.97;19.45;;;;;;;;;;5065344;28;20061;-83
2021/12/23 09:37:52;;;;;;;39.38;20.20;;;;;;;;;;5065283;28;20045;-84
2021/12/23 09:40:20;;;;;;;40.28;20.83;;;;;;;;;;5066562;28;20049;-83
2021/12/23 09:42:48;;;;;;;35.15;20.23;;;;;;;;;;5055586;28;20053;-81
2021/12/23 09:45:18;;;;;;;43.38;21.05;;;;;;;;;;5051542;28;20503;-81
2021/12/23 09:47:46;;;;;;;40.33;20.52;;;;;;;;;;5051628;28;20045;-81
2021/12/23 09:50:16;;;;;;;41.25;20.60;;;;;;;;;;5051538;28;20088;-81
2021/12/23 09:52:45;;;;;;;37.63;20.63;;;;;;;;;;5051722;28;20102;-82
2021/12/23 09:55:13;;;;;;;41.30;20.42;;;;;;;;;;5051152;28;20049;-81
2021/12/23 09:57:40;;;;;;;54.92;27.35;;;;;;;;;;5056232;28;20041;-81
2021/12/23 10:00:11;;;;;;;59.35;27.45;;;;;;;;;;5056418;28;20148;-81
2021/12/23 10:02:40;;;;;;;51.45;24.58;;;;;;;;;;5055582;28;20059;-81
2021/12/23 10:05:09;;;;;;;40.90;22.35;;;;;;;;;;5057050;28;20049;-81
2021/12/23 10:07:36;;;;;;;53.05;23.83;;;;;;;;;;5056152;28;20107;-80
2021/12/23 10:10:10;;;;;;;41.25;22.33;;;;;;;;;;5053929;28;20045;-81
2021/12/23 10:32:27;;;;;;;44.05;23.02;;;;;;;;;;5021305;28;20076;-80
2021/12/23 10:37:50;;;;;;;45.10;21.80;;;;;;;;;;5052702;28;20126;-80
2021/12/23 10:40:20;;;;;;;43.85;20.67;;;;;;;;;;5062707;28;20045;-80
2021/12/23 10:42:53;;;;;;;41.53;22.10;;;;;;;;;;5063494;28;20056;-80
2021/12/23 10:45:20;;;;;;;44.65;21.95;;;;;;;;;;5063120;28;20446;-80
2021/12/23 10:47:56;;;;;;;40.38;20.60;;;;;;;;;;5062615;28;20049;-80
2021/12/23 10:50:31;;;;;;;39.88;20.20;;;;;;;;;;5062723;28;20076;-81
2021/12/23 10:53:03;;;;;;;35.67;19.00;;;;;;;;;;5062463;28;20106;-80
2021/12/23 10:58:16;;;;;;;33.50;17.67;;;;;;;;;;5060238;28;20103;-81
2021/12/23 11:00:49;;;;;;;36.47;17.52;;;;;;;;;;5056033;28;20072;-81
2021/12/23 11:03:23;;;;;;;35.83;16.98;;;;;;;;;;5054653;28;20515;-82
2021/12/23 11:06:01;;;;;;;33.10;16.65;;;;;;;;;;5056983;28;20052;-82
2021/12/23 11:08:36;;;;;;;31.83;16.15;;;;;;;;;;5057865;28;20049;-82
2021/12/23 11:28:08;;;;;;;26.40;12.55;;;;;;;;;;5054392;28;20092;-80
2021/12/23 11:36:33;;;;;;;24.90;12.82;;;;;;;;;;5054932;28;20064;-81
2021/12/23 11:39:24;;;;;;;26.85;13.55;;;;;;;;;;5053981;28;20067;-80
2021/12/23 11:42:00;;;;;;;25.30;12.20;;;;;;;;;;5055612;28;20492;-80
2021/12/23 11:44:30;;;;;;;28.52;13.80;;;;;;;;;;5053763;28;20053;-81
2021/12/23 11:47:01;;;;;;;27.63;13.52;;;;;;;;;;5053741;28;20064;-81
2021/12/23 11:49:28;;;;;;;30.40;15.60;;;;;;;;;;5053424;28;20515;-81
2021/12/23 11:51:56;;;;;;;26.90;14.43;;;;;;;;;;5053733;28;20135;-81
2021/12/23 11:54:28;;;;;;;24.40;13.30;;;;;;;;;;5054190;28;20041;-80
2021/12/23 11:57:01;;;;;;;32.15;14.23;;;;;;;;;;5053515;28;20055;-80
2021/12/23 11:59:28;;;;;;;30.05;14.63;;;;;;;;;;5052806;28;20482;-80
2021/12/23 12:01:56;;;;;;;31.15;15.73;;;;;;;;;;5053301;28;20087;-81
2021/12/23 12:04:28;;;;;;;31.58;14.90;;;;;;;;;;5052052;28;20176;-85
2021/12/23 12:07:01;;;;;;;33.88;15.45;;;;;;;;;;5053267;28;20423;-84
2021/12/23 12:09:54;;;;;;;31.67;17.20;;;;;;;;;;5053880;28;20049;-82
2021/12/23 12:12:21;;;;;;;27.02;15.77;;;;;;;;;;5054282;28;20450;-82
2021/12/23 12:14:51;;;;;;;32.97;16.38;;;;;;;;;;5055680;28;20114;-83
2021/12/23 12:17:41;;;;;;;28.80;15.18;;;;;;;;;;5054881;28;20081;-81
2021/12/23 12:20:15;;;;;;;32.92;15.55;;;;;;;;;;5053703;28;20049;-80
2021/12/23 12:23:01;;;;;;;37.97;17.05;;;;;;;;;;5053787;28;20055;-80
2021/12/23 12:25:58;;;;;;;34.15;16.05;;;;;;;;;;5053961;28;20106;-83
2021/12/23 12:28:51;;;;;;;31.73;15.32;;;;;;;;;;5053547;28;20072;-84
2021/12/23 12:31:20;;;;;;;30.73;15.68;;;;;;;;;;5058031;28;20052;-83
2021/12/23 12:34:06;;;;;;;35.95;17.45;;;;;;;;;;5064525;28;20041;-83
2021/12/23 12:36:41;;;;;;;36.25;17.48;;;;;;;;;;5074689;28;20029;-80
2021/12/23 12:39:18;;;;;;;29.77;14.65;;;;;;;;;;5073737;28;20056;-81
2021/12/23 12:41:46;;;;;;;31.77;15.55;;;;;;;;;;5066349;28;20075;-83
2021/12/23 12:44:21;;;;;;;30.27;14.80;;;;;;;;;;5058501;28;20116;-82
2021/12/23 12:47:07;;;;;;;34.70;16.08;;;;;;;;;;5057797;28;20048;-82
2021/12/23 12:49:43;;;;;;;31.15;14.55;;;;;;;;;;5054776;28;20049;-83
2021/12/23 12:52:17;;;;;;;53.50;20.45;;;;;;;;;;5054667;28;20071;-81
2021/12/23 12:54:49;;;;;;;47.45;19.10;;;;;;;;;;5054668;28;20052;-82
2021/12/23 12:57:18;;;;;;;41.22;19.48;;;;;;;;;;5055362;28;20049;-81
2021/12/23 12:59:47;;;;;;;35.03;17.10;;;;;;;;;;5055607;28;20186;-82
2021/12/23 13:02:23;;;;;;;35.95;17.17;;;;;;;;;;5055684;28;20045;-82
2021/12/23 13:04:53;;;;;;;38.88;16.65;;;;;;;;;;5056003;28;20049;-81
2021/12/23 13:07:25;;;;;;;38.28;16.80;;;;;;;;;;5054226;28;20132;-82
2021/12/23 13:10:00;;;;;;;33.88;14.95;;;;;;;;;;5052442;28;20045;-81
2021/12/23 13:12:36;;;;;;;30.17;15.93;;;;;;;;;;5054232;28;20527;-81
2021/12/23 13:15:20;;;;;;;29.30;14.35;;;;;;;;;;5053644;28;20049;-81
2021/12/23 13:17:56;;;;;;;27.30;13.45;;;;;;;;;;5053944;28;20045;-82
2021/12/23 13:20:41;;;;;;;33.47;15.32;;;;;;;;;;5059891;28;20052;-82
2021/12/23 13:23:12;;;;;;;31.88;16.92;;;;;;;;;;5054322;28;20100;-82
2021/12/23 13:25:48;;;;;;;32.33;16.63;;;;;;;;;;5053213;28;20057;-82
2021/12/23 13:28:27;;;;;;;37.80;16.33;;;;;;;;;;5055737;28;20707;-82
2021/12/23 13:30:54;;;;;;;34.63;16.85;;;;;;;;;;5065215;28;20045;-81
2021/12/23 13:33:22;;;;;;;37.38;18.70;;;;;;;;;;5070432;28;20049;-80
2021/12/23 13:35:49;;;;;;;43.75;18.92;;;;;;;;;;5071911;28;20090;-80
2021/12/23 13:38:33;;;;;;;37.83;19.10;;;;;;;;;;5072586;28;20048;-81
2021/12/23 13:41:20;;;;;;;38.90;18.58;;;;;;;;;;5071471;28;20049;-81
2021/12/23 13:43:48;;;;;;;37.50;18.58;;;;;;;;;;5067979;28;20048;-81
2021/12/23 13:46:15;;;;;;;38.10;18.80;;;;;;;;;;5062951;28;20075;-81
2021/12/23 13:48:53;;;;;;;36.85;18.75;;;;;;;;;;5068820;28;20099;-81
2021/12/23 13:51:22;;;;;;;38.83;18.60;;;;;;;;;;5071220;28;20056;-81
2021/12/23 13:54:00;;;;;;;40.80;19.95;;;;;;;;;;5071338;28;20053;-77
2021/12/23 13:56:51;;;;;;;42.45;20.23;;;;;;;;;;5073381;28;20052;-88
2021/12/23 13:59:19;;;;;;;;;;;;;;;;;;5073773;28;20040;-79
2021/12/23 14:02:03;;;;;;;39.78;18.42;;;;;;;;;;5072852;28;19920;-85
2021/12/23 14:07:36;;;;;;;41.72;19.95;;;;;;;;;;5062663;22;20057;-79
2021/12/23 14:10:07;;;;;;;39.05;19.90;;;;;;;;;;5036386;28;20090;-78
2021/12/23 14:12:45;;;;;;;42.88;22.27;;;;;;;;;;5038554;28;20100;-79
2021/12/23 14:15:15;;;;;;;43.58;20.77;;;;;;;;;;5040149;28;20053;-79
2021/12/23 14:17:45;;;;;;;45.60;21.08;;;;;;;;;;5039314;28;20053;-79
2021/12/23 14:23:13;;;;;;;42.50;20.25;;;;;;;;;;5040158;28;20056;-79
2021/12/23 14:25:59;;;;;;;43.75;21.73;;;;;;;;;;5041193;28;20119;-80
2021/12/23 14:28:32;;;;;;;47.90;23.83;;;;;;;;;;5038693;28;20136;-79
2021/12/23 14:31:01;;;;;;;54.03;24.55;;;;;;;;;;5038656;28;20103;-80
2021/12/23 14:33:30;;;;;;;50.30;25.88;;;;;;;;;;5039873;28;20045;-81
2021/12/23 14:36:03;;;;;;;55.35;27.50;;;;;;;;;;5040275;28;20055;-80
2021/12/23 14:38:34;;;;;;;66.03;30.92;;;;;;;;;;5040436;28;20085;-80
2021/12/23 14:41:12;;;;;;;72.38;34.42;;;;;;;;;;5043527;28;20133;-80
2021/12/23 14:44:05;;;;;;;67.25;34.03;;;;;;;;;;5038940;28;20080;-79
2021/12/23 14:46:55;;;;;;;60.00;31.95;;;;;;;;;;5038568;28;20046;-79
2021/12/23 14:52:26;;;;;;;66.28;30.85;;;;;;;;;;5038224;28;20081;-82
2021/12/23 14:54:56;;;;;;;61.83;30.95;;;;;;;;;;5039581;28;20045;-79
2021/12/23 14:57:26;;;;;;;62.28;30.73;;;;;;;;;;5040018;28;20045;-81
2021/12/23 14:59:57;;;;;;;69.38;33.47;;;;;;;;;;5040393;28;20083;-80
2021/12/23 15:02:25;;;;;;;66.38;32.22;;;;;;;;;;5040566;28;20642;-80
2021/12/23 15:05:03;;;;;;;64.65;31.95;;;;;;;;;;5039965;28;20103;-80
2021/12/23 15:07:46;;;;;;;65.40;31.92;;;;;;;;;;5041324;28;20049;-79
2021/12/23 15:10:14;;;;;;;67.50;31.30;;;;;;;;;;5040525;28;20056;-79
2021/12/23 15:12:41;;;;;;;64.28;30.10;;;;;;;;;;5042853;28;20123;-84
2021/12/23 15:15:11;;;;;;;64.32;31.67;;;;;;;;;;5044888;28;20045;-81
2021/12/23 15:17:49;;;;;;;54.90;30.27;;;;;;;;;;5044984;28;20046;-80
2021/12/23 15:20:26;;;;;;;63.03;30.38;;;;;;;;;;5041368;28;20056;-81
2021/12/23 15:22:54;;;;;;;57.97;30.35;;;;;;;;;;5041111;28;20064;-80
2021/12/23 15:25:21;;;;;;;59.58;30.15;;;;;;;;;;5041858;28;20080;-81
2021/12/23 15:27:48;;;;;;;58.40;29.13;;;;;;;;;;5036962;28;20046;-80
2021/12/23 15:30:19;;;;;;;55.08;27.70;;;;;;;;;;5038208;28;20459;-81
2021/12/23 15:32:48;;;;;;;55.50;28.77;;;;;;;;;;5041113;28;20053;-82
2021/12/23 15:35:18;;;;;;;59.85;28.85;;;;;;;;;;5040117;28;20103;-81
2021/12/23 15:37:47;;;;;;;58.90;31.23;;;;;;;;;;5038761;28;20103;-82